createdAt,value
2022-11-03T06:56:39.936Z,7.22
2022-11-03T06:57:40.867Z,7.22
2022-11-03T06:58:40.911Z,7.21
2022-11-03T06:59:40.865Z,7.22
2022-11-03T07:00:42.855Z,7.26
2022-11-03T07:01:41.012Z,7.24
2022-11-03T07:02:40.938Z,7.25
2022-11-03T07:03:40.810Z,7.25
2022-11-03T07:04:40.844Z,7.25
2022-11-03T07:05:40.799Z,7.26
2022-11-03T07:06:40.779Z,7.26
2022-11-03T07:07:40.750Z,7.28
2022-11-03T07:08:40.777Z,7.28
2022-11-03T07:09:40.763Z,7.28
2022-11-03T07:10:40.754Z,7.28
2022-11-03T07:11:40.695Z,7.28
2022-11-03T07:12:40.749Z,7.28
2022-11-03T07:13:40.674Z,7.28
2022-11-03T07:14:40.701Z,7.26
2022-11-03T07:15:40.689Z,7.26
2022-11-03T07:16:40.649Z,7.26
2022-11-03T07:17:40.614Z,7.25
2022-11-03T07:18:40.629Z,7.25
2022-11-03T07:19:40.624Z,7.24
2022-11-03T07:20:40.632Z,7.24
2022-11-03T07:21:40.597Z,7.25
2022-11-03T07:22:40.569Z,7.26
2022-11-03T07:23:44.676Z,7.28
2022-11-03T07:24:40.615Z,7.31
2022-11-03T07:25:40.514Z,7.33
2022-11-03T07:26:40.585Z,7.37
2022-11-03T07:27:40.498Z,7.39
2022-11-03T07:28:40.489Z,7.40
2022-11-03T07:29:40.478Z,7.42
2022-11-03T07:30:40.473Z,7.44
2022-11-03T07:31:40.497Z,7.49
2022-11-03T07:32:40.458Z,7.52
2022-11-03T07:33:40.419Z,7.57
2022-11-03T07:34:40.409Z,7.61
2022-11-03T07:36:08.491Z,7.68
2022-11-03T07:36:40.407Z,7.71
2022-11-03T07:37:40.397Z,7.76
2022-11-03T07:38:40.355Z,7.80
2022-11-03T07:39:40.338Z,7.87
2022-11-03T07:40:40.349Z,7.92
2022-11-03T07:41:40.310Z,7.95
2022-11-03T07:42:40.366Z,7.99
2022-11-03T07:43:40.342Z,8.05
2022-11-03T07:44:40.302Z,8.10
2022-11-03T07:45:40.359Z,8.14
2022-11-03T07:46:40.271Z,8.19
2022-11-03T07:47:40.247Z,8.23
2022-11-03T07:48:40.276Z,8.26
2022-11-03T07:49:40.210Z,8.31
2022-11-03T07:50:40.218Z,8.35
2022-11-03T07:51:40.177Z,8.37
2022-11-03T07:52:40.197Z,8.41
2022-11-03T07:53:40.189Z,8.42
2022-11-03T07:54:40.216Z,8.46
2022-11-03T07:55:40.214Z,8.44
2022-11-03T07:56:40.131Z,8.47
2022-11-03T07:57:40.114Z,8.50
2022-11-03T07:58:40.121Z,8.52
2022-11-03T07:59:40.115Z,8.55
2022-11-03T08:00:40.081Z,8.55
2022-11-03T08:01:40.216Z,8.60
2022-11-03T08:02:40.104Z,8.60
2022-11-03T08:03:40.020Z,8.63
2022-11-03T08:04:40.120Z,8.62
2022-11-03T08:05:40.005Z,8.67
2022-11-03T08:06:40.036Z,8.67
2022-11-03T08:07:40.044Z,8.71
2022-11-03T08:08:40.000Z,8.75
2022-11-03T08:09:39.978Z,8.77
2022-11-03T08:10:39.999Z,8.75
2022-11-03T08:11:39.941Z,8.80
2022-11-03T08:12:39.928Z,8.78
2022-11-03T08:13:39.901Z,8.81
2022-11-03T08:14:39.966Z,8.81
2022-11-03T08:15:39.935Z,8.86
2022-11-03T08:16:39.870Z,8.88
2022-11-03T08:17:39.920Z,8.88
2022-11-03T08:18:39.849Z,8.92
2022-11-03T08:19:39.836Z,8.93
2022-11-03T08:20:39.856Z,8.95
2022-11-03T08:21:39.904Z,8.96
2022-11-03T08:22:40.381Z,8.96
2022-11-03T08:23:43.250Z,9.01
2022-11-03T08:24:39.773Z,9.04
2022-11-03T08:25:39.750Z,9.04
2022-11-03T08:26:39.833Z,9.08
2022-11-03T08:27:39.720Z,9.08
2022-11-03T08:28:39.719Z,9.09
2022-11-03T08:29:39.692Z,9.09
2022-11-03T08:30:39.732Z,9.11
2022-11-03T08:31:39.683Z,9.09
2022-11-03T08:32:39.703Z,9.09
2022-11-03T08:33:39.697Z,9.11
2022-11-03T08:34:39.646Z,9.08
2022-11-03T08:35:39.628Z,9.09
2022-11-03T08:36:39.607Z,9.04
2022-11-03T08:37:39.624Z,9.06
2022-11-03T08:38:39.597Z,9.06
2022-11-03T08:39:39.564Z,9.03
2022-11-03T08:40:39.571Z,9.03
2022-11-03T08:41:39.551Z,9.04
2022-11-03T08:42:39.540Z,9.03
2022-11-03T08:43:39.546Z,9.09
2022-11-03T08:44:39.549Z,9.11
2022-11-03T08:45:39.493Z,9.14
2022-11-03T08:46:39.497Z,9.16
2022-11-03T08:47:39.458Z,9.24
2022-11-03T08:48:39.516Z,9.26
2022-11-03T08:49:39.454Z,9.34
2022-11-03T08:50:39.436Z,9.40
2022-11-03T08:51:44.085Z,9.45
2022-11-03T08:52:39.465Z,9.51
2022-11-03T08:53:39.388Z,9.57
2022-11-03T08:54:39.423Z,9.66
2022-11-03T08:55:39.353Z,9.72
2022-11-03T08:56:39.376Z,9.80
2022-11-03T08:57:39.326Z,9.88
2022-11-03T08:58:39.335Z,9.98
2022-11-03T08:59:39.432Z,10.01
2022-11-03T09:00:41.183Z,10.03
2022-11-03T09:01:39.348Z,10.08
2022-11-03T09:02:39.361Z,10.10
2022-11-03T09:03:39.406Z,10.21
2022-11-03T09:04:39.248Z,10.20
2022-11-03T09:05:39.239Z,10.26
2022-11-03T09:06:39.316Z,10.30
2022-11-03T09:10:42.313Z,10.60
2022-11-03T09:11:39.140Z,10.57
2022-11-03T09:12:39.202Z,10.64
2022-11-03T09:13:39.138Z,10.75
2022-11-03T09:14:39.109Z,10.82
2022-11-03T09:15:39.183Z,10.85
2022-11-03T09:16:39.084Z,10.86
2022-11-03T09:17:40.654Z,10.90
2022-11-03T09:18:39.065Z,10.94
2022-11-03T09:19:39.068Z,11.01
2022-11-03T09:20:39.059Z,11.05
2022-11-03T09:21:39.210Z,11.16
2022-11-03T09:22:39.047Z,11.22
2022-11-03T09:23:39.062Z,11.25
2022-11-03T09:24:38.984Z,11.31
2022-11-03T09:25:38.965Z,11.36
2022-11-03T09:26:38.981Z,11.38
2022-11-03T09:27:38.987Z,11.54
2022-11-03T09:28:38.933Z,11.64
2022-11-03T09:30:06.620Z,11.74
2022-11-03T09:30:38.938Z,11.80
2022-11-03T09:31:38.878Z,11.89
2022-11-03T09:32:38.907Z,11.97
2022-11-03T09:33:38.956Z,12.05
2022-11-03T09:34:38.862Z,12.07
2022-11-03T09:35:38.839Z,12.10
2022-11-03T09:36:38.831Z,12.07
2022-11-03T09:37:38.944Z,12.14
2022-11-03T09:38:38.812Z,12.17
2022-11-03T09:39:38.820Z,12.22
2022-11-03T09:40:38.815Z,12.28
2022-11-03T09:41:57.817Z,12.26
2022-11-03T09:42:38.761Z,12.23
2022-11-03T09:43:38.903Z,12.14
2022-11-03T09:44:38.751Z,12.11
2022-11-03T09:45:38.737Z,12.14
2022-11-03T09:46:38.708Z,12.15
2022-11-03T09:47:38.714Z,12.05
2022-11-03T09:48:38.707Z,11.99
2022-11-03T09:49:38.646Z,11.97
2022-11-03T09:50:38.646Z,11.97
2022-11-03T09:51:38.688Z,11.97
2022-11-03T09:52:38.650Z,11.99
2022-11-03T09:53:38.584Z,11.97
2022-11-03T09:54:38.686Z,11.87
2022-11-03T09:55:38.587Z,11.82
2022-11-03T09:56:38.563Z,11.76
2022-11-03T09:57:38.546Z,11.70
2022-11-03T09:58:38.536Z,11.69
2022-11-03T09:59:38.598Z,11.66
2022-11-03T10:00:38.554Z,11.59
2022-11-03T10:01:38.603Z,11.56
2022-11-03T10:02:38.494Z,11.54
2022-11-03T10:03:38.476Z,11.52
2022-11-03T10:04:38.492Z,11.56
2022-11-03T10:05:38.457Z,11.54
2022-11-03T10:06:38.453Z,11.46
2022-11-03T10:07:38.414Z,11.48
2022-11-03T10:08:38.434Z,11.51
2022-11-03T10:09:38.386Z,11.55
2022-11-03T10:10:38.438Z,11.55
2022-11-03T10:11:38.408Z,11.54
2022-11-03T10:12:38.395Z,11.41
2022-11-03T10:13:38.348Z,11.40
2022-11-03T10:14:38.389Z,11.41
2022-11-03T10:15:38.302Z,11.43
2022-11-03T10:16:38.332Z,11.46
2022-11-03T10:17:38.309Z,11.43
2022-11-03T10:18:38.285Z,11.48
2022-11-03T10:19:38.258Z,11.45
2022-11-03T10:20:38.266Z,11.43
2022-11-03T10:21:38.318Z,11.43
2022-11-03T10:22:41.035Z,11.46
2022-11-03T10:23:38.215Z,11.46
2022-11-03T10:24:38.208Z,11.46
2022-11-03T10:25:38.243Z,11.48
2022-11-03T10:26:38.171Z,11.49
2022-11-03T10:27:38.174Z,11.46
2022-11-03T10:28:38.201Z,11.45
2022-11-03T10:29:39.962Z,11.43
2022-11-03T10:30:58.168Z,11.43
2022-11-03T10:31:38.136Z,11.41
2022-11-03T10:32:38.120Z,11.38
2022-11-03T10:33:38.063Z,11.34
2022-11-03T10:34:38.119Z,11.31
2022-11-03T10:35:38.051Z,11.31
2022-11-03T10:36:38.050Z,11.31
2022-11-03T10:37:38.040Z,11.33
2022-11-03T10:38:38.020Z,11.31
2022-11-03T10:39:37.994Z,11.28
2022-11-03T10:40:53.255Z,11.27
2022-11-03T10:41:37.979Z,11.31
2022-11-03T10:42:37.970Z,11.34
2022-11-03T10:43:38.010Z,11.34
2022-11-03T10:44:37.932Z,11.34
2022-11-03T10:45:38.066Z,11.30
2022-11-03T10:46:50.621Z,11.30
2022-11-03T10:47:37.894Z,11.33
2022-11-03T10:48:37.931Z,11.34
2022-11-03T10:49:42.443Z,11.37
2022-11-03T10:50:37.857Z,11.37
2022-11-03T10:51:37.847Z,11.38
2022-11-03T10:52:37.818Z,11.40
2022-11-03T10:53:37.828Z,11.48
2022-11-03T10:54:37.821Z,11.48
2022-11-03T10:56:37.778Z,11.56
2022-11-03T10:57:37.781Z,11.59
2022-11-03T10:58:37.737Z,11.64
2022-11-03T10:59:37.847Z,11.67
2022-11-03T11:00:37.744Z,11.71
2022-11-03T11:01:37.871Z,11.79
2022-11-03T11:02:37.720Z,11.79
2022-11-03T11:03:37.680Z,11.82
2022-11-03T11:04:37.745Z,11.88
2022-11-03T11:05:37.690Z,11.91
2022-11-03T11:06:37.662Z,11.99
2022-11-03T11:07:37.633Z,12.07
2022-11-03T11:08:37.717Z,12.13
2022-11-03T11:09:37.611Z,12.15
2022-11-03T11:10:37.632Z,12.17
2022-11-03T11:11:37.577Z,12.21
2022-11-03T11:12:37.585Z,12.23
2022-11-03T11:13:37.549Z,12.30
2022-11-03T11:14:37.550Z,12.36
2022-11-03T11:15:37.528Z,12.41
2022-11-03T11:16:37.567Z,12.41
2022-11-03T11:17:37.516Z,12.46
2022-11-03T11:18:37.471Z,12.51
2022-11-03T11:19:37.475Z,12.53
2022-11-03T11:20:37.500Z,12.53
2022-11-03T11:21:37.493Z,12.59
2022-11-03T11:22:37.438Z,12.59
2022-11-03T11:23:37.425Z,12.61
2022-11-03T11:24:37.452Z,12.65
2022-11-03T11:25:37.400Z,12.63
2022-11-03T11:26:37.370Z,12.65
2022-11-03T11:27:37.394Z,12.69
2022-11-03T11:28:37.376Z,12.72
2022-11-03T11:29:37.351Z,12.73
2022-11-03T11:30:37.320Z,12.66
2022-11-03T11:31:37.396Z,12.69
2022-11-03T11:32:37.352Z,12.76
2022-11-03T11:33:37.286Z,12.72
2022-11-03T11:34:37.312Z,12.76
2022-11-03T11:35:37.266Z,12.86
2022-11-03T11:36:37.237Z,12.80
2022-11-03T11:37:37.242Z,12.87
2022-11-03T11:38:37.232Z,12.95
2022-11-03T11:39:37.247Z,12.95
2022-11-03T11:40:37.181Z,12.96
2022-11-03T11:41:37.185Z,12.99
2022-11-03T11:42:38.796Z,13.05
2022-11-03T11:43:37.212Z,13.05
2022-11-03T11:44:37.135Z,13.09
2022-11-03T11:45:37.140Z,13.08
2022-11-03T11:46:37.139Z,13.02
2022-11-03T11:47:37.111Z,13.01
2022-11-03T11:48:37.113Z,13.04
2022-11-03T11:49:37.125Z,13.04
2022-11-03T11:50:37.138Z,13.09
2022-11-03T11:51:37.071Z,13.05
2022-11-03T11:52:37.022Z,13.06
2022-11-03T11:53:37.062Z,13.06
2022-11-03T11:54:37.053Z,13.11
2022-11-03T11:55:36.998Z,13.11
2022-11-03T11:56:36.979Z,13.17
2022-11-03T11:57:37.023Z,13.14
2022-11-03T11:58:36.974Z,13.11
2022-11-03T11:59:36.951Z,13.04
2022-11-03T12:00:36.976Z,13.02
2022-11-03T12:01:36.975Z,12.99
2022-11-03T12:02:36.949Z,12.95
2022-11-03T12:03:36.990Z,12.91
2022-11-03T12:04:36.873Z,12.88
2022-11-03T12:05:36.942Z,12.86
2022-11-03T12:06:36.931Z,12.83
2022-11-03T12:07:36.852Z,12.76
2022-11-03T12:08:36.835Z,12.71
2022-11-03T12:09:36.829Z,12.71
2022-11-03T12:10:36.797Z,12.69
2022-11-03T12:11:36.821Z,12.69
2022-11-03T12:12:36.782Z,12.77
2022-11-03T12:13:36.778Z,12.80
2022-11-03T12:14:36.740Z,12.80
2022-11-03T12:15:36.782Z,12.73
2022-11-03T12:16:36.757Z,12.73
2022-11-03T12:17:36.740Z,12.81
2022-11-03T12:18:40.717Z,12.81
2022-11-03T12:19:36.702Z,12.90
2022-11-03T12:20:36.671Z,12.91
2022-11-03T12:21:36.658Z,12.95
2022-11-03T12:22:36.661Z,12.93
2022-11-03T12:23:36.654Z,13.05
2022-11-03T12:24:36.619Z,13.11
2022-11-03T12:25:36.612Z,13.20
2022-11-03T12:26:36.590Z,13.30
2022-11-03T12:27:36.623Z,13.40
2022-11-03T12:28:36.565Z,13.45
2022-11-03T12:29:36.642Z,13.49
2022-11-03T12:30:39.827Z,13.54
2022-11-03T12:31:37.154Z,13.57
2022-11-03T12:32:36.517Z,13.58
2022-11-03T12:33:36.580Z,13.71
2022-11-03T12:34:36.488Z,13.72
2022-11-03T12:35:36.479Z,13.75
2022-11-03T12:36:36.465Z,13.78
2022-11-03T12:37:36.487Z,13.79
2022-11-03T12:38:36.462Z,13.83
2022-11-03T12:39:36.441Z,13.86
2022-11-03T12:40:36.399Z,13.86
2022-11-03T12:41:36.438Z,13.94
2022-11-03T12:42:36.381Z,13.96
2022-11-03T12:43:36.390Z,13.97
2022-11-03T12:44:41.268Z,13.98
2022-11-03T12:45:36.401Z,14.00
2022-11-03T12:46:36.332Z,14.01
2022-11-03T12:47:36.324Z,14.01
2022-11-03T12:48:36.339Z,14.09
2022-11-03T12:49:36.330Z,14.12
2022-11-03T12:50:36.271Z,14.16
2022-11-03T12:51:36.341Z,14.09
2022-11-03T12:52:36.249Z,14.04
2022-11-03T12:53:36.251Z,14.03
2022-11-03T12:54:36.223Z,14.05
2022-11-03T12:55:38.171Z,14.04
2022-11-03T12:56:36.192Z,14.04
2022-11-03T12:57:36.190Z,14.04
2022-11-03T12:58:36.168Z,14.01
2022-11-03T12:59:36.215Z,14.00
2022-11-03T13:00:36.176Z,13.91
2022-11-03T13:01:36.401Z,13.88
2022-11-03T13:02:36.301Z,13.80
2022-11-03T13:03:36.115Z,13.78
2022-11-03T13:04:36.105Z,13.76
2022-11-03T13:05:36.090Z,13.68
2022-11-03T13:06:36.118Z,13.61
2022-11-03T13:07:36.067Z,13.53
2022-11-03T13:08:36.035Z,13.46
2022-11-03T13:09:36.176Z,13.38
2022-11-03T13:10:36.013Z,13.36
2022-11-03T13:11:36.041Z,13.24
2022-11-03T13:12:35.998Z,13.17
2022-11-03T13:13:35.988Z,13.14
2022-11-03T13:14:35.955Z,13.13
2022-11-03T13:15:36.040Z,13.11
2022-11-03T13:16:36.657Z,13.08
2022-11-03T13:17:59.222Z,13.06
2022-11-03T13:18:35.974Z,13.05
2022-11-03T13:19:35.920Z,13.02
2022-11-03T13:20:35.916Z,13.01
2022-11-03T13:21:35.886Z,12.99
2022-11-03T13:22:35.916Z,12.96
2022-11-03T13:23:35.859Z,12.96
2022-11-03T13:24:35.842Z,12.93
2022-11-03T13:25:35.946Z,12.93
2022-11-03T13:26:35.830Z,12.87
2022-11-03T13:27:35.858Z,12.84
2022-11-03T13:28:35.807Z,12.84
2022-11-03T13:29:36.083Z,12.86
2022-11-03T13:30:35.761Z,12.86
2022-11-03T13:31:35.886Z,12.84
2022-11-03T13:32:35.724Z,12.84
2022-11-03T13:33:35.808Z,12.81
2022-11-03T13:34:35.707Z,12.80
2022-11-03T13:35:35.751Z,12.77
2022-11-03T13:36:35.678Z,12.72
2022-11-03T13:37:35.679Z,12.69
2022-11-03T13:38:35.824Z,12.65
2022-11-03T13:39:35.674Z,12.63
2022-11-03T13:40:55.536Z,12.61
2022-11-03T13:41:35.628Z,12.58
2022-11-03T13:42:35.600Z,12.53
2022-11-03T13:43:35.608Z,12.47
2022-11-03T13:44:35.596Z,12.41
2022-11-03T13:45:35.632Z,12.36
2022-11-03T13:46:35.543Z,12.28
2022-11-03T13:48:15.415Z,12.22
2022-11-03T13:50:07.788Z,12.15
2022-11-03T13:50:35.649Z,12.13
2022-11-03T13:51:35.489Z,12.10
2022-11-03T13:52:35.471Z,12.07
2022-11-03T13:59:27.346Z,11.85
2022-11-03T13:59:33.066Z,11.77
2022-11-03T14:00:33.050Z,11.74
2022-11-03T14:01:33.591Z,11.69
2022-11-03T14:05:33.094Z,11.61
2022-11-03T14:06:33.011Z,11.61
2022-11-03T14:07:33.001Z,11.59
2022-11-03T14:08:32.943Z,11.58
2022-11-03T14:09:32.927Z,11.55
2022-11-03T14:10:32.908Z,11.55
2022-11-03T14:11:32.934Z,11.52
2022-11-03T14:12:32.968Z,11.52
2022-11-03T14:13:32.916Z,11.51
2022-11-03T14:14:32.869Z,11.46
2022-11-03T14:15:32.857Z,11.45
2022-11-03T14:16:32.924Z,11.41
2022-11-03T14:17:32.923Z,11.40
2022-11-03T14:18:32.838Z,11.38
2022-11-03T14:19:39.670Z,11.38
2022-11-03T14:20:32.860Z,11.41
2022-11-03T14:21:32.755Z,11.37
2022-11-03T14:22:32.765Z,11.34
2022-11-03T14:23:32.820Z,11.31
2022-11-03T14:24:32.761Z,11.28
2022-11-03T14:25:32.719Z,11.27
2022-11-03T14:26:42.200Z,11.25
2022-11-03T14:27:32.818Z,11.23
2022-11-03T14:28:32.759Z,11.22
2022-11-03T14:29:32.681Z,11.18
2022-11-03T14:30:32.688Z,11.16
2022-11-03T14:31:32.630Z,11.15
2022-11-03T14:32:32.647Z,11.15
2022-11-03T14:33:32.646Z,11.12
2022-11-03T14:34:32.698Z,11.11
2022-11-03T14:35:32.589Z,11.09
2022-11-03T14:36:32.589Z,11.05
2022-11-03T14:37:32.624Z,11.05
2022-11-03T14:38:32.553Z,11.04
2022-11-03T14:39:32.589Z,11.04
2022-11-03T14:40:32.566Z,11.03
2022-11-03T14:41:32.493Z,11.01
2022-11-03T14:42:32.527Z,11.00
2022-11-03T14:43:35.085Z,11.00
2022-11-03T14:44:32.471Z,11.00
2022-11-03T14:45:32.721Z,10.98
2022-11-03T14:46:32.447Z,10.98
2022-11-03T14:47:32.425Z,10.97
2022-11-03T14:48:32.417Z,10.95
2022-11-03T14:49:32.390Z,10.97
2022-11-03T14:50:32.423Z,10.97
2022-11-03T14:51:32.361Z,10.97
2022-11-03T14:52:32.367Z,10.95
2022-11-03T14:53:32.344Z,10.94
2022-11-03T14:54:32.338Z,10.94
2022-11-03T14:55:32.312Z,10.94
2022-11-03T14:56:32.367Z,10.93
2022-11-03T14:57:32.286Z,10.91
2022-11-03T14:58:32.288Z,10.90
2022-11-03T14:59:32.308Z,10.90
2022-11-03T15:00:32.275Z,10.86
2022-11-03T15:01:32.369Z,10.86
2022-11-03T15:02:32.303Z,10.85
2022-11-03T15:03:32.208Z,10.85
2022-11-03T15:04:32.214Z,10.85
2022-11-03T15:05:32.196Z,10.82
2022-11-03T15:06:32.179Z,10.80
2022-11-03T15:07:32.202Z,10.82
2022-11-03T15:08:32.165Z,10.78
2022-11-03T15:09:32.144Z,10.79
2022-11-03T15:10:32.109Z,10.76
2022-11-03T15:11:32.148Z,10.78
2022-11-03T15:12:32.114Z,10.79
2022-11-03T15:13:32.090Z,10.78
2022-11-03T15:14:32.094Z,10.78
2022-11-03T15:15:32.065Z,10.78
2022-11-03T15:16:32.043Z,10.78
2022-11-03T15:17:32.125Z,10.78
2022-11-03T15:18:32.657Z,10.76
2022-11-03T15:19:32.020Z,10.76
2022-11-03T15:20:31.995Z,10.76
2022-11-03T15:21:31.984Z,10.75
2022-11-03T15:25:35.136Z,10.67
2022-11-03T15:26:31.960Z,10.65
2022-11-03T15:27:31.909Z,10.67
2022-11-03T15:28:31.904Z,10.64
2022-11-03T15:29:31.943Z,10.62
2022-11-03T15:30:31.849Z,10.61
2022-11-03T15:31:31.870Z,10.62
2022-11-03T15:32:36.323Z,10.62
2022-11-03T15:33:31.827Z,10.58
2022-11-03T15:34:31.842Z,10.60
2022-11-03T15:35:31.858Z,10.57
2022-11-03T15:36:31.785Z,10.57
2022-11-03T15:37:31.782Z,10.55
2022-11-03T15:38:31.754Z,10.49
2022-11-03T15:39:31.757Z,10.49
2022-11-03T15:40:31.756Z,10.49
2022-11-03T15:41:31.777Z,10.48
2022-11-03T15:42:31.743Z,10.46
2022-11-03T15:43:31.700Z,10.48
2022-11-03T15:44:31.674Z,10.46
2022-11-03T15:45:31.747Z,10.45
2022-11-03T15:46:31.639Z,10.46
2022-11-03T15:47:31.643Z,10.42
2022-11-03T15:48:34.518Z,10.43
2022-11-03T15:49:31.636Z,10.42
2022-11-03T15:50:31.661Z,10.42
2022-11-03T15:51:31.624Z,10.42
2022-11-03T15:52:31.563Z,10.43
2022-11-03T15:53:31.592Z,10.43
2022-11-03T15:54:31.549Z,10.42
2022-11-03T15:55:31.546Z,10.41
2022-11-03T15:56:31.545Z,10.41
2022-11-03T15:57:31.520Z,10.39
2022-11-03T15:58:31.494Z,10.41
2022-11-03T15:59:31.482Z,10.38
2022-11-03T16:00:31.472Z,10.36
2022-11-03T16:01:31.595Z,10.36
2022-11-03T16:02:47.027Z,10.35
2022-11-03T16:03:31.527Z,10.34
2022-11-03T16:04:31.439Z,10.31
2022-11-03T16:05:31.421Z,10.30
2022-11-03T16:07:06.661Z,10.28
2022-11-03T16:07:32.052Z,10.27
2022-11-03T16:08:31.379Z,10.26
2022-11-03T16:09:31.357Z,10.26
2022-11-03T16:10:31.340Z,10.26
2022-11-03T16:11:31.345Z,10.24
2022-11-03T16:12:31.311Z,10.23
2022-11-03T16:13:31.341Z,10.21
2022-11-03T16:14:31.295Z,10.23
2022-11-03T16:15:31.300Z,10.21
2022-11-03T16:16:31.268Z,10.23
2022-11-03T16:17:31.258Z,10.21
2022-11-03T16:18:31.258Z,10.20
2022-11-03T16:19:31.232Z,10.18
2022-11-03T16:20:31.195Z,10.20
2022-11-03T16:21:31.204Z,10.18
2022-11-03T16:22:31.173Z,10.17
2022-11-03T16:23:31.175Z,10.16
2022-11-03T16:24:35.145Z,10.16
2022-11-03T16:25:31.143Z,10.16
2022-11-03T16:26:31.120Z,10.14
2022-11-03T16:27:31.120Z,10.12
2022-11-03T16:28:31.098Z,10.14
2022-11-03T16:29:31.131Z,10.12
2022-11-03T16:30:31.068Z,10.12
2022-11-03T16:31:31.070Z,10.12
2022-11-03T16:32:31.071Z,10.10
2022-11-03T16:33:31.113Z,10.10
2022-11-03T16:34:31.073Z,10.12
2022-11-03T16:35:31.105Z,10.09
2022-11-03T16:36:31.041Z,10.09
2022-11-03T16:37:31.042Z,10.10
2022-11-03T16:38:31.121Z,10.09
2022-11-03T16:39:31.051Z,10.09
2022-11-03T16:40:31.025Z,10.08
2022-11-03T16:41:31.001Z,10.09
2022-11-03T16:42:31.140Z,10.09
2022-11-03T16:43:30.963Z,10.08
2022-11-03T16:44:30.940Z,10.06
2022-11-03T16:45:34.973Z,10.08
2022-11-03T16:46:30.922Z,10.08
2022-11-03T16:47:30.954Z,10.06
2022-11-03T16:48:30.935Z,10.06
2022-11-03T16:49:30.948Z,10.05
2022-11-03T16:50:31.157Z,10.05
2022-11-03T16:51:30.968Z,10.05
2022-11-03T16:52:30.840Z,10.05
2022-11-03T16:53:30.871Z,10.08
2022-11-03T16:54:30.810Z,10.06
2022-11-03T16:55:30.813Z,10.06
2022-11-03T16:56:30.826Z,10.06
2022-11-03T16:57:30.806Z,10.08
2022-11-03T16:58:30.764Z,10.06
2022-11-03T16:59:30.797Z,10.06
2022-11-03T17:00:30.732Z,10.08
2022-11-03T17:01:30.863Z,10.06
2022-11-03T17:02:30.750Z,10.08
2022-11-03T17:03:30.726Z,10.09
2022-11-03T17:04:30.718Z,10.06
2022-11-03T17:05:30.695Z,10.08
2022-11-03T17:06:30.656Z,10.08
2022-11-03T17:07:30.665Z,10.09
2022-11-03T17:09:30.647Z,10.08
2022-11-03T17:10:30.636Z,10.08
2022-11-03T17:11:30.599Z,10.08
2022-11-03T17:12:30.584Z,10.09
2022-11-03T17:13:30.573Z,10.09
2022-11-03T17:14:30.553Z,10.06
2022-11-03T17:15:30.598Z,10.08
2022-11-03T17:16:30.527Z,10.08
2022-11-03T17:17:30.521Z,10.08
2022-11-03T17:18:30.505Z,10.10
2022-11-03T17:19:30.499Z,10.08
2022-11-03T17:20:30.477Z,10.09
2022-11-03T17:21:30.500Z,10.09
2022-11-03T17:22:30.447Z,10.10
2022-11-03T17:23:30.444Z,10.09
2022-11-03T17:24:30.421Z,10.09
2022-11-03T17:25:30.414Z,10.09
2022-11-03T17:26:30.392Z,10.10
2022-11-03T17:27:30.414Z,10.09
2022-11-03T17:28:30.403Z,10.09
2022-11-03T17:29:30.370Z,10.09
2022-11-03T17:30:30.351Z,10.09
2022-11-03T17:31:30.355Z,10.10
2022-11-03T17:32:30.330Z,10.09
2022-11-03T17:33:30.318Z,10.09
2022-11-03T17:34:30.323Z,10.09
2022-11-03T17:35:32.614Z,10.08
2022-11-03T17:36:30.269Z,10.08
2022-11-03T17:37:30.262Z,10.08
2022-11-03T17:38:30.243Z,10.08
2022-11-03T17:39:30.286Z,10.08
2022-11-03T17:40:30.210Z,10.06
2022-11-03T17:41:30.230Z,10.05
2022-11-03T17:42:30.184Z,10.06
2022-11-03T17:43:30.211Z,10.06
2022-11-03T17:44:30.152Z,10.08
2022-11-03T17:45:30.187Z,10.05
2022-11-03T17:46:30.128Z,10.08
2022-11-03T17:47:30.132Z,10.08
2022-11-03T17:48:30.108Z,10.06
2022-11-03T17:49:30.109Z,10.08
2022-11-03T17:50:30.108Z,10.08
2022-11-03T17:51:30.083Z,10.12
2022-11-03T17:52:30.055Z,10.10
2022-11-03T17:53:30.052Z,10.12
2022-11-03T17:54:30.034Z,10.14
2022-11-03T17:55:30.068Z,10.14
2022-11-03T17:56:31.255Z,10.16
2022-11-03T17:57:30.039Z,10.16
2022-11-03T17:58:29.983Z,10.17
2022-11-03T17:59:29.981Z,10.17
2022-11-03T18:00:29.955Z,10.18
2022-11-03T18:01:30.071Z,10.17
2022-11-03T18:02:30.025Z,10.17
2022-11-03T18:03:29.925Z,10.20
2022-11-03T18:04:29.947Z,10.18
2022-11-03T18:05:29.903Z,10.20
2022-11-03T18:06:29.900Z,10.21
2022-11-03T18:07:29.877Z,10.21
2022-11-03T18:08:29.853Z,10.20
2022-11-03T18:09:29.856Z,10.23
2022-11-03T18:10:29.822Z,10.20
2022-11-03T18:11:29.859Z,10.23
2022-11-03T18:12:29.803Z,10.21
2022-11-03T18:13:34.039Z,10.21
2022-11-03T18:14:29.777Z,10.21
2022-11-03T18:15:29.763Z,10.23
2022-11-03T18:16:29.737Z,10.26
2022-11-03T18:17:29.794Z,10.26
2022-11-03T18:18:29.714Z,10.24
2022-11-03T18:19:29.715Z,10.24
2022-11-03T18:20:29.709Z,10.24
2022-11-03T18:21:29.688Z,10.27
2022-11-03T18:22:29.690Z,10.27
2022-11-03T18:23:29.688Z,10.26
2022-11-03T18:24:29.632Z,10.26
2022-11-03T18:25:29.638Z,10.28
2022-11-03T18:26:29.642Z,10.27
2022-11-03T18:27:29.658Z,10.27
2022-11-03T18:28:29.581Z,10.27
2022-11-03T18:29:29.585Z,10.27
2022-11-03T18:30:29.556Z,10.27
2022-11-03T18:31:32.476Z,10.26
2022-11-03T18:32:35.732Z,10.26
2022-11-03T18:33:29.587Z,10.26
2022-11-03T18:34:29.518Z,10.27
2022-11-03T18:35:29.514Z,10.26
2022-11-03T18:36:29.526Z,10.24
2022-11-03T18:37:29.476Z,10.27
2022-11-03T18:38:29.490Z,10.26
2022-11-03T18:39:29.459Z,10.24
2022-11-03T18:40:29.470Z,10.24
2022-11-03T18:41:29.425Z,10.26
2022-11-03T18:42:29.405Z,10.24
2022-11-03T18:43:29.408Z,10.26
2022-11-03T18:44:29.414Z,10.26
2022-11-03T18:45:29.369Z,10.26
2022-11-03T18:46:29.400Z,10.26
2022-11-03T18:47:29.346Z,10.23
2022-11-03T18:48:29.330Z,10.26
2022-11-03T18:49:29.376Z,10.23
2022-11-03T18:50:29.319Z,10.24
2022-11-03T18:51:29.291Z,10.24
2022-11-03T18:52:29.275Z,10.24
2022-11-03T18:53:29.286Z,10.26
2022-11-03T18:54:29.250Z,10.26
2022-11-03T18:55:29.272Z,10.26
2022-11-03T18:56:38.130Z,10.26
2022-11-03T18:57:29.217Z,10.28
2022-11-03T18:58:29.195Z,10.31
2022-11-03T18:59:29.197Z,10.35
2022-11-03T19:00:29.209Z,10.39
2022-11-03T19:01:29.335Z,10.46
2022-11-03T19:02:29.230Z,10.42
2022-11-03T19:03:29.182Z,10.43
2022-11-03T19:04:29.113Z,10.42
2022-11-03T19:05:29.122Z,10.42
2022-11-03T19:06:29.115Z,10.39
2022-11-03T19:07:29.097Z,10.43
2022-11-03T19:08:29.062Z,10.45
2022-11-03T19:09:29.116Z,10.42
2022-11-03T19:10:29.038Z,10.45
2022-11-03T19:11:29.074Z,10.46
2022-11-03T19:12:29.015Z,10.45
2022-11-03T19:13:29.010Z,10.46
2022-11-03T19:14:29.016Z,10.45
2022-11-03T19:15:28.995Z,10.48
2022-11-03T19:16:28.956Z,10.48
2022-11-03T19:17:28.988Z,10.48
2022-11-03T19:18:28.931Z,10.49
2022-11-03T19:19:29.001Z,10.48
2022-11-03T19:20:28.912Z,10.48
2022-11-03T19:21:28.892Z,10.48
2022-11-03T19:22:28.946Z,10.48
2022-11-03T19:23:28.900Z,10.48
2022-11-03T19:24:28.863Z,10.52
2022-11-03T19:25:28.832Z,10.48
2022-11-03T19:26:28.846Z,10.49
2022-11-03T19:27:28.825Z,10.49
2022-11-03T19:28:28.841Z,10.52
2022-11-03T19:29:28.792Z,10.52
2022-11-03T19:30:28.836Z,10.55
2022-11-03T19:31:28.771Z,10.52
2022-11-03T19:32:28.776Z,10.54
2022-11-03T19:33:28.769Z,10.49
2022-11-03T19:34:28.764Z,10.52
2022-11-03T19:35:28.716Z,10.45
2022-11-03T19:36:28.709Z,10.43
2022-11-03T19:37:34.003Z,10.43
2022-11-03T19:38:28.690Z,10.41
2022-11-03T19:39:28.733Z,10.41
2022-11-03T19:40:28.665Z,10.39
2022-11-03T19:41:28.634Z,10.36
2022-11-03T19:42:28.654Z,10.34
2022-11-03T19:43:34.194Z,10.31
2022-11-03T19:44:28.739Z,10.30
2022-11-03T19:45:28.663Z,10.30
2022-11-03T19:46:28.593Z,10.28
2022-11-03T19:47:31.663Z,10.26
2022-11-03T19:48:28.803Z,10.27
2022-11-03T19:49:28.537Z,10.26
2022-11-03T19:50:28.588Z,10.24
2022-11-03T19:51:28.506Z,10.24
2022-11-03T19:52:28.602Z,10.21
2022-11-03T19:53:28.479Z,10.20
2022-11-03T19:54:28.536Z,10.20
2022-11-03T19:55:28.489Z,10.20
2022-11-03T19:56:28.454Z,10.17
2022-11-03T19:57:28.481Z,10.16
2022-11-03T19:58:28.426Z,10.14
2022-11-03T19:59:28.409Z,10.14
2022-11-03T20:00:28.396Z,10.10
2022-11-03T20:01:28.553Z,10.09
2022-11-03T20:02:28.519Z,10.08
2022-11-03T20:03:28.341Z,10.05
2022-11-03T20:04:28.355Z,10.03
2022-11-03T20:05:28.316Z,10.03
2022-11-03T20:06:28.371Z,10.02
2022-11-03T20:07:31.568Z,9.99
2022-11-03T20:08:28.434Z,9.99
2022-11-03T20:10:31.624Z,9.98